Celebrity Century — 9HJI9 — position and weather

sailwx.info

Track history (hours):
 
Tides and Currents Weather Stations Pressure Air Temp Water Temp Dewpoint Dewpoint Depression Visibility Wind Speed Wind Dir Waves Ship Positions

Celebrity Century

Last reported at 2017-Jun-20 15:26 UTC. Time now 2017-Jun-22 16:38 UTC.
Position N 24°20' E 118°54'.

; draft 8 m.

Type: Passenger vessel. MMSI: 249054000.

Date/timePositionNaut miles runAvg speedWind from/ knotsBaromVisibWave heightAir tempDewpointWater temp
2017-Jun-20 15:26N 24°20' E 118°54'1216.5
2017-Jun-20 14:43N 24°17' E 118°41'1216.4
2017-Jun-20 13:59N 24°13' E 118°29'510.7
2017-Jun-20 13:30N 24°11' E 118°23'510.0
2017-Jun-20 13:00N 24°13' E 118°18'510.8
2017-Jun-20 12:31N 24°16' E 118°14'611.0
2017-Jun-20 12:01N 24°21' E 118°10'5 9.9
2017-Jun-20 11:31N 24°24' E 118°06'4 8.9
2017-Jun-20 11:00N 24°27' E 118°03'2 1.5
2017-Jun-20 09:39N 24°29' E 118°04'0 0.0
2017-Jun-20 09:21N 24°29' E 118°04'0 0.0
2017-Jun-20 08:57N 24°29' E 118°04'0 0.0
2017-Jun-20 08:21N 24°29' E 118°04'0 0.0
2017-Jun-20 06:21N 24°29' E 118°04'0 0.0
2017-Jun-20 05:51N 24°29' E 118°04'0 0.0
2017-Jun-20 05:27N 24°29' E 118°04'0 0.0
2017-Jun-20 04:51N 24°29' E 118°04'0 0.0
2017-Jun-20 04:21N 24°29' E 118°04'0 0.0
2017-Jun-20 00:36N 24°29' E 118°04'0 0.0
2017-Jun-20 00:30N 24°29' E 118°04'0 0.0
2017-Jun-20 00:00N 24°29' E 118°04'0 0.0
2017-Jun-19 23:30N 24°29' E 118°04'1 1.6
2017-Jun-19 23:00N 24°29' E 118°03'5 9.4
2017-Jun-19 22:30N 24°24' E 118°06'612.4
2017-Jun-19 22:00N 24°20' E 118°10'612.5
2017-Jun-19 21:30N 24°15' E 118°15'5 9.7
2017-Jun-19 21:00N 24°13' E 118°20'611.0
2017-Jun-19 20:30N 24°14' E 118°26'510.5
2017-Jun-19 20:00N 24°14' E 118°32'510.5
2017-Jun-19 19:30N 24°16' E 118°37'910.5
2017-Jun-19 18:36N 24°18' E 118°47'110.7
2017-Jun-19 18:30N 24°19' E 118°48'910.4
2017-Jun-19 17:36N 24°22' E 118°58'110.2
2017-Jun-19 17:27N 24°22' E 118°60'  
2017-Jun-16 13:30N 24°19' E 118°51'1312.4
2017-Jun-16 12:28N 24°16' E 118°37'612.9
2017-Jun-16 11:59N 24°15' E 118°30'612.7
2017-Jun-16 11:30N 24°13' E 118°24'611.9
2017-Jun-16 11:00N 24°13' E 118°17'612.6
2017-Jun-16 10:30N 24°18' E 118°13'713.8
2017-Jun-16 10:00N 24°23' E 118°07'612.1
2017-Jun-16 09:30N 24°27' E 118°03'2 0.3
2017-Jun-16 00:26N 24°29' E 118°04'0 0.0
2017-Jun-15 23:56N 24°29' E 118°04'0 0.3
2017-Jun-15 23:30N 24°29' E 118°04'4 7.8
2017-Jun-15 23:00N 24°25' E 118°04'5 9.2
2017-Jun-15 22:31N 24°22' E 118°08'611.5
2017-Jun-15 22:00N 24°18' E 118°12'612.4
2017-Jun-15 21:30N 24°13' E 118°17'4 8.7
2017-Jun-15 21:00N 24°12' E 118°21'611.8
2017-Jun-15 20:30N 24°12' E 118°28'1911.7
2017-Jun-15 18:55N 24°19' E 118°47'  
2017-Jun-12 12:50N 24°19' E 118°54'717.3
2017-Jun-12 12:25N 24°17' E 118°47'717.1
2017-Jun-12 12:00N 24°14' E 118°39'816.8
2017-Jun-12 11:30N 24°14' E 118°30'816.5
2017-Jun-12 11:00N 24°14' E 118°21'611.6
2017-Jun-12 10:30N 24°15' E 118°15'713.6
2017-Jun-12 10:01N 24°20' E 118°10'713.0
2017-Jun-12 09:31N 24°25' E 118°05'4 9.0
2017-Jun-12 09:00N 24°29' E 118°04'0 0.4
2017-Jun-12 08:26N 24°29' E 118°04'0 0.0
2017-Jun-12 07:50N 24°29' E 118°04'0 0.0
2017-Jun-12 06:56N 24°29' E 118°04'0 0.0
2017-Jun-12 06:26N 24°29' E 118°04'0 0.0
2017-Jun-12 05:44N 24°29' E 118°04'0 0.0
2017-Jun-12 05:20N 24°29' E 118°04'0 0.0
2017-Jun-12 04:56N 24°29' E 118°04'0 0.0
2017-Jun-12 04:26N 24°29' E 118°04'0 0.0
2017-Jun-12 03:56N 24°29' E 118°04'0 0.0
2017-Jun-12 03:26N 24°29' E 118°04'0 0.0
2017-Jun-12 02:56N 24°29' E 118°04'0 0.0
2017-Jun-12 02:26N 24°29' E 118°04'0 0.0
2017-Jun-12 01:56N 24°29' E 118°04'0 0.0
2017-Jun-12 01:26N 24°29' E 118°04'0 0.0
2017-Jun-12 00:56N 24°29' E 118°04'0 0.0
2017-Jun-12 00:26N 24°29' E 118°04'0 0.0
2017-Jun-11 23:59N 24°29' E 118°04'0 0.0
2017-Jun-11 23:27N 24°29' E 118°04'1 2.4
2017-Jun-11 23:00N 24°28' E 118°03'5 9.8
2017-Jun-11 22:30N 24°24' E 118°06'5 9.1
2017-Jun-11 22:00N 24°21' E 118°09'5 9.7
2017-Jun-11 21:30N 24°17' E 118°13'5 9.4
2017-Jun-11 21:00N 24°14' E 118°16'612.3
2017-Jun-11 20:30N 24°13' E 118°23'814.7
2017-Jun-11 19:59N 24°14' E 118°31'715.0
2017-Jun-11 19:30N 24°16' E 118°39'1215.0
2017-Jun-11 18:43N 24°19' E 118°51'  
Track history (hours):
 
Tides and Currents Weather Stations Pressure Air Temp Water Temp Dewpoint Dewpoint Depression Visibility Wind Speed Wind Dir Waves Ship Positions

Celebrity Century

Last reported at 2017-Jun-20 15:26 UTC. Time now 2017-Jun-22 16:38 UTC.
Position N 24°20' E 118°54'.

; draft 8 m.

Type: Passenger vessel. MMSI: 249054000.

Date/timePositionNaut miles runAvg speedWind from/ knotsBaromVisibWave heightAir tempDewpointWater temp
2017-Jun-20 15:26N 24°20' E 118°54'1216.5
2017-Jun-20 14:43N 24°17' E 118°41'1216.4
2017-Jun-20 13:59N 24°13' E 118°29'510.7
2017-Jun-20 13:30N 24°11' E 118°23'510.0
2017-Jun-20 13:00N 24°13' E 118°18'510.8
2017-Jun-20 12:31N 24°16' E 118°14'611.0
2017-Jun-20 12:01N 24°21' E 118°10'5 9.9
2017-Jun-20 11:31N 24°24' E 118°06'4 8.9
2017-Jun-20 11:00N 24°27' E 118°03'2 1.5
2017-Jun-20 09:39N 24°29' E 118°04'0 0.0
2017-Jun-20 09:21N 24°29' E 118°04'0 0.0
2017-Jun-20 08:57N 24°29' E 118°04'0 0.0
2017-Jun-20 08:21N 24°29' E 118°04'0 0.0
2017-Jun-20 06:21N 24°29' E 118°04'0 0.0
2017-Jun-20 05:51N 24°29' E 118°04'0 0.0
2017-Jun-20 05:27N 24°29' E 118°04'0 0.0
2017-Jun-20 04:51N 24°29' E 118°04'0 0.0
2017-Jun-20 04:21N 24°29' E 118°04'0 0.0
2017-Jun-20 00:36N 24°29' E 118°04'0 0.0
2017-Jun-20 00:30N 24°29' E 118°04'0 0.0
2017-Jun-20 00:00N 24°29' E 118°04'0 0.0
2017-Jun-19 23:30N 24°29' E 118°04'1 1.6
2017-Jun-19 23:00N 24°29' E 118°03'5 9.4
2017-Jun-19 22:30N 24°24' E 118°06'612.4
2017-Jun-19 22:00N 24°20' E 118°10'612.5
2017-Jun-19 21:30N 24°15' E 118°15'5 9.7
2017-Jun-19 21:00N 24°13' E 118°20'611.0
2017-Jun-19 20:30N 24°14' E 118°26'510.5
2017-Jun-19 20:00N 24°14' E 118°32'510.5
2017-Jun-19 19:30N 24°16' E 118°37'910.5
2017-Jun-19 18:36N 24°18' E 118°47'110.7
2017-Jun-19 18:30N 24°19' E 118°48'910.4
2017-Jun-19 17:36N 24°22' E 118°58'110.2
2017-Jun-19 17:27N 24°22' E 118°60'  
2017-Jun-16 13:30N 24°19' E 118°51'1312.4
2017-Jun-16 12:28N 24°16' E 118°37'612.9
2017-Jun-16 11:59N 24°15' E 118°30'612.7
2017-Jun-16 11:30N 24°13' E 118°24'611.9
2017-Jun-16 11:00N 24°13' E 118°17'612.6
2017-Jun-16 10:30N 24°18' E 118°13'713.8
2017-Jun-16 10:00N 24°23' E 118°07'612.1
2017-Jun-16 09:30N 24°27' E 118°03'2 0.3
2017-Jun-16 00:26N 24°29' E 118°04'0 0.0
2017-Jun-15 23:56N 24°29' E 118°04'0 0.3
2017-Jun-15 23:30N 24°29' E 118°04'4 7.8
2017-Jun-15 23:00N 24°25' E 118°04'5 9.2
2017-Jun-15 22:31N 24°22' E 118°08'611.5
2017-Jun-15 22:00N 24°18' E 118°12'612.4
2017-Jun-15 21:30N 24°13' E 118°17'4 8.7
2017-Jun-15 21:00N 24°12' E 118°21'611.8
2017-Jun-15 20:30N 24°12' E 118°28'1911.7
2017-Jun-15 18:55N 24°19' E 118°47'  
2017-Jun-12 12:50N 24°19' E 118°54'717.3
2017-Jun-12 12:25N 24°17' E 118°47'717.1
2017-Jun-12 12:00N 24°14' E 118°39'816.8
2017-Jun-12 11:30N 24°14' E 118°30'816.5
2017-Jun-12 11:00N 24°14' E 118°21'611.6
2017-Jun-12 10:30N 24°15' E 118°15'713.6
2017-Jun-12 10:01N 24°20' E 118°10'713.0
2017-Jun-12 09:31N 24°25' E 118°05'4 9.0
2017-Jun-12 09:00N 24°29' E 118°04'0 0.4
2017-Jun-12 08:26N 24°29' E 118°04'0 0.0
2017-Jun-12 07:50N 24°29' E 118°04'0 0.0
2017-Jun-12 06:56N 24°29' E 118°04'0 0.0
2017-Jun-12 06:26N 24°29' E 118°04'0 0.0
2017-Jun-12 05:44N 24°29' E 118°04'0 0.0
2017-Jun-12 05:20N 24°29' E 118°04'0 0.0
2017-Jun-12 04:56N 24°29' E 118°04'0 0.0
2017-Jun-12 04:26N 24°29' E 118°04'0 0.0
2017-Jun-12 03:56N 24°29' E 118°04'0 0.0
2017-Jun-12 03:26N 24°29' E 118°04'0 0.0
2017-Jun-12 02:56N 24°29' E 118°04'0 0.0
2017-Jun-12 02:26N 24°29' E 118°04'0 0.0
2017-Jun-12 01:56N 24°29' E 118°04'0 0.0
2017-Jun-12 01:26N 24°29' E 118°04'0 0.0
2017-Jun-12 00:56N 24°29' E 118°04'0 0.0
2017-Jun-12 00:26N 24°29' E 118°04'0 0.0
2017-Jun-11 23:59N 24°29' E 118°04'0 0.0
2017-Jun-11 23:27N 24°29' E 118°04'1 2.4
2017-Jun-11 23:00N 24°28' E 118°03'5 9.8
2017-Jun-11 22:30N 24°24' E 118°06'5 9.1
2017-Jun-11 22:00N 24°21' E 118°09'5 9.7
2017-Jun-11 21:30N 24°17' E 118°13'5 9.4
2017-Jun-11 21:00N 24°14' E 118°16'612.3
2017-Jun-11 20:30N 24°13' E 118°23'814.7
2017-Jun-11 19:59N 24°14' E 118°31'715.0
2017-Jun-11 19:30N 24°16' E 118°39'1215.0
2017-Jun-11 18:43N 24°19' E 118°51'  

Dump ship's entire track history